sensor_id;sensor_type;location;lat;lon;timestamp;P1;durP1;ratioP1;P2;durP2;ratioP2
76208;SDS011;64990;51.698;-0.292;2024-02-28T00:04:16;6.97;;;3.50;;
76208;SDS011;64990;51.698;-0.292;2024-02-28T00:06:42;12.68;;;3.50;;
76208;SDS011;64990;51.698;-0.292;2024-02-28T00:09:08;5.57;;;3.75;;
76208;SDS011;64990;51.698;-0.292;2024-02-28T00:11:34;10.77;;;3.70;;
76208;SDS011;64990;51.698;-0.292;2024-02-28T00:14:00;11.20;;;3.80;;
76208;SDS011;64990;51.698;-0.292;2024-02-28T00:16:27;10.93;;;4.05;;
76208;SDS011;64990;51.698;-0.292;2024-02-28T00:18:53;9.95;;;3.30;;
76208;SDS011;64990;51.698;-0.292;2024-02-28T00:21:19;10.27;;;3.95;;
76208;SDS011;64990;51.698;-0.292;2024-02-28T00:23:45;11.65;;;4.03;;
76208;SDS011;64990;51.698;-0.292;2024-02-28T00:26:12;10.57;;;3.47;;
76208;SDS011;64990;51.698;-0.292;2024-02-28T00:28:38;17.65;;;4.35;;
76208;SDS011;64990;51.698;-0.292;2024-02-28T00:31:04;10.23;;;4.20;;
76208;SDS011;64990;51.698;-0.292;2024-02-28T00:33:30;8.75;;;3.83;;
76208;SDS011;64990;51.698;-0.292;2024-02-28T00:35:56;7.45;;;3.88;;
76208;SDS011;64990;51.698;-0.292;2024-02-28T00:38:22;11.60;;;3.58;;
76208;SDS011;64990;51.698;-0.292;2024-02-28T00:40:48;11.68;;;4.78;;
76208;SDS011;64990;51.698;-0.292;2024-02-28T00:43:14;8.82;;;3.60;;
76208;SDS011;64990;51.698;-0.292;2024-02-28T00:45:40;5.93;;;4.20;;
76208;SDS011;64990;51.698;-0.292;2024-02-28T00:48:06;15.68;;;3.65;;
76208;SDS011;64990;51.698;-0.292;2024-02-28T00:50:32;20.80;;;5.40;;
76208;SDS011;64990;51.698;-0.292;2024-02-28T00:52:58;13.52;;;5.15;;
76208;SDS011;64990;51.698;-0.292;2024-02-28T00:55:24;8.90;;;4.05;;
76208;SDS011;64990;51.698;-0.292;2024-02-28T00:57:50;10.57;;;4.70;;
76208;SDS011;64990;51.698;-0.292;2024-02-28T01:00:16;10.85;;;4.80;;
76208;SDS011;64990;51.698;-0.292;2024-02-28T01:02:42;8.70;;;5.18;;
76208;SDS011;64990;51.698;-0.292;2024-02-28T01:05:08;10.57;;;4.00;;
76208;SDS011;64990;51.698;-0.292;2024-02-28T01:07:34;11.02;;;3.95;;
76208;SDS011;64990;51.698;-0.292;2024-02-28T01:10:01;16.35;;;5.63;;
76208;SDS011;64990;51.698;-0.292;2024-02-28T01:12:27;13.48;;;5.90;;
76208;SDS011;64990;51.698;-0.292;2024-02-28T01:14:53;8.50;;;3.92;;
76208;SDS011;64990;51.698;-0.292;2024-02-28T01:17:19;16.88;;;4.85;;
76208;SDS011;64990;51.698;-0.292;2024-02-28T01:19:45;12.70;;;4.82;;
76208;SDS011;64990;51.698;-0.292;2024-02-28T01:22:11;14.65;;;4.70;;
76208;SDS011;64990;51.698;-0.292;2024-02-28T01:24:37;13.07;;;4.90;;
76208;SDS011;64990;51.698;-0.292;2024-02-28T01:27:03;14.43;;;5.47;;
76208;SDS011;64990;51.698;-0.292;2024-02-28T01:29:29;8.55;;;4.63;;
76208;SDS011;64990;51.698;-0.292;2024-02-28T01:31:55;10.48;;;4.88;;
76208;SDS011;64990;51.698;-0.292;2024-02-28T01:34:21;8.13;;;4.65;;
76208;SDS011;64990;51.698;-0.292;2024-02-28T01:36:47;12.00;;;4.53;;
76208;SDS011;64990;51.698;-0.292;2024-02-28T01:39:13;15.63;;;5.82;;
76208;SDS011;64990;51.698;-0.292;2024-02-28T01:41:39;18.45;;;7.25;;
76208;SDS011;64990;51.698;-0.292;2024-02-28T01:44:08;12.02;;;6.10;;
76208;SDS011;64990;51.698;-0.292;2024-02-28T01:46:34;12.75;;;5.03;;
76208;SDS011;64990;51.698;-0.292;2024-02-28T01:49:00;22.40;;;6.68;;
76208;SDS011;64990;51.698;-0.292;2024-02-28T01:51:26;8.73;;;5.65;;
76208;SDS011;64990;51.698;-0.292;2024-02-28T01:53:52;23.98;;;6.68;;
76208;SDS011;64990;51.698;-0.292;2024-02-28T01:56:19;15.02;;;6.65;;
76208;SDS011;64990;51.698;-0.292;2024-02-28T01:58:46;16.08;;;5.82;;
76208;SDS011;64990;51.698;-0.292;2024-02-28T02:01:15;20.55;;;8.43;;
76208;SDS011;64990;51.698;-0.292;2024-02-28T02:03:43;20.38;;;6.68;;
76208;SDS011;64990;51.698;-0.292;2024-02-28T02:06:09;21.20;;;6.50;;
76208;SDS011;64990;51.698;-0.292;2024-02-28T02:08:36;9.63;;;5.45;;
76208;SDS011;64990;51.698;-0.292;2024-02-28T02:11:02;13.05;;;6.45;;
76208;SDS011;64990;51.698;-0.292;2024-02-28T02:13:29;17.85;;;7.90;;
76208;SDS011;64990;51.698;-0.292;2024-02-28T02:15:55;17.08;;;6.90;;
76208;SDS011;64990;51.698;-0.292;2024-02-28T02:18:21;24.92;;;8.50;;
76208;SDS011;64990;51.698;-0.292;2024-02-28T02:20:49;14.20;;;6.45;;
76208;SDS011;64990;51.698;-0.292;2024-02-28T02:23:15;13.80;;;7.50;;
76208;SDS011;64990;51.698;-0.292;2024-02-28T02:25:45;30.95;;;8.55;;
76208;SDS011;64990;51.698;-0.292;2024-02-28T02:28:11;19.40;;;7.13;;
76208;SDS011;64990;51.698;-0.292;2024-02-28T02:30:37;23.40;;;6.68;;
76208;SDS011;64990;51.698;-0.292;2024-02-28T02:33:04;19.00;;;7.28;;
76208;SDS011;64990;51.698;-0.292;2024-02-28T02:35:30;16.13;;;7.43;;
76208;SDS011;64990;51.698;-0.292;2024-02-28T02:37:56;22.60;;;6.60;;
76208;SDS011;64990;51.698;-0.292;2024-02-28T02:40:22;16.38;;;7.63;;
76208;SDS011;64990;51.698;-0.292;2024-02-28T02:42:48;21.70;;;6.90;;
76208;SDS011;64990;51.698;-0.292;2024-02-28T02:45:14;25.02;;;7.72;;
76208;SDS011;64990;51.698;-0.292;2024-02-28T02:47:40;18.75;;;7.05;;
76208;SDS011;64990;51.698;-0.292;2024-02-28T02:50:06;14.77;;;6.80;;
76208;SDS011;64990;51.698;-0.292;2024-02-28T02:52:32;18.92;;;8.18;;
76208;SDS011;64990;51.698;-0.292;2024-02-28T02:54:58;16.98;;;7.22;;
76208;SDS011;64990;51.698;-0.292;2024-02-28T02:57:24;16.05;;;8.05;;
76208;SDS011;64990;51.698;-0.292;2024-02-28T02:59:50;25.50;;;8.45;;
76208;SDS011;64990;51.698;-0.292;2024-02-28T03:02:16;18.20;;;7.75;;
76208;SDS011;64990;51.698;-0.292;2024-02-28T03:04:42;18.33;;;7.60;;
76208;SDS011;64990;51.698;-0.292;2024-02-28T03:07:08;16.75;;;7.47;;
76208;SDS011;64990;51.698;-0.292;2024-02-28T03:09:34;18.92;;;6.15;;
76208;SDS011;64990;51.698;-0.292;2024-02-28T03:12:00;21.25;;;8.02;;
76208;SDS011;64990;51.698;-0.292;2024-02-28T03:14:26;11.13;;;7.25;;
76208;SDS011;64990;51.698;-0.292;2024-02-28T03:16:52;21.73;;;7.72;;
76208;SDS011;64990;51.698;-0.292;2024-02-28T03:19:18;20.80;;;7.28;;
76208;SDS011;64990;51.698;-0.292;2024-02-28T03:21:44;31.13;;;8.43;;
76208;SDS011;64990;51.698;-0.292;2024-02-28T03:24:10;28.17;;;11.15;;
76208;SDS011;64990;51.698;-0.292;2024-02-28T03:26:36;23.10;;;8.35;;
76208;SDS011;64990;51.698;-0.292;2024-02-28T03:29:03;21.13;;;7.57;;
76208;SDS011;64990;51.698;-0.292;2024-02-28T03:31:29;23.98;;;8.48;;
76208;SDS011;64990;51.698;-0.292;2024-02-28T03:33:55;15.80;;;8.23;;
76208;SDS011;64990;51.698;-0.292;2024-02-28T03:36:21;23.92;;;8.93;;
76208;SDS011;64990;51.698;-0.292;2024-02-28T03:38:47;29.00;;;9.27;;
76208;SDS011;64990;51.698;-0.292;2024-02-28T03:41:13;20.40;;;8.43;;
76208;SDS011;64990;51.698;-0.292;2024-02-28T03:43:39;23.90;;;8.63;;
76208;SDS011;64990;51.698;-0.292;2024-02-28T03:46:05;24.77;;;8.75;;
76208;SDS011;64990;51.698;-0.292;2024-02-28T03:48:31;26.67;;;9.10;;
76208;SDS011;64990;51.698;-0.292;2024-02-28T03:50:57;27.55;;;10.27;;
76208;SDS011;64990;51.698;-0.292;2024-02-28T03:53:23;29.35;;;7.93;;
76208;SDS011;64990;51.698;-0.292;2024-02-28T03:55:49;17.85;;;7.82;;
76208;SDS011;64990;51.698;-0.292;2024-02-28T03:58:16;23.48;;;8.75;;
76208;SDS011;64990;51.698;-0.292;2024-02-28T04:00:42;22.20;;;8.98;;
76208;SDS011;64990;51.698;-0.292;2024-02-28T04:03:09;29.98;;;9.88;;
76208;SDS011;64990;51.698;-0.292;2024-02-28T04:05:35;25.85;;;9.07;;
76208;SDS011;64990;51.698;-0.292;2024-02-28T04:08:01;19.25;;;9.48;;
76208;SDS011;64990;51.698;-0.292;2024-02-28T04:10:27;24.02;;;8.98;;
76208;SDS011;64990;51.698;-0.292;2024-02-28T04:12:53;24.73;;;9.73;;
76208;SDS011;64990;51.698;-0.292;2024-02-28T04:15:19;18.23;;;9.23;;
76208;SDS011;64990;51.698;-0.292;2024-02-28T04:17:45;26.70;;;10.65;;
76208;SDS011;64990;51.698;-0.292;2024-02-28T04:20:12;20.70;;;10.48;;
76208;SDS011;64990;51.698;-0.292;2024-02-28T04:22:38;23.77;;;10.02;;
76208;SDS011;64990;51.698;-0.292;2024-02-28T04:25:08;26.85;;;10.13;;
76208;SDS011;64990;51.698;-0.292;2024-02-28T04:27:37;34.97;;;9.90;;
76208;SDS011;64990;51.698;-0.292;2024-02-28T04:30:04;23.65;;;7.93;;
76208;SDS011;64990;51.698;-0.292;2024-02-28T04:32:30;27.17;;;8.93;;
76208;SDS011;64990;51.698;-0.292;2024-02-28T04:34:56;17.30;;;8.48;;
76208;SDS011;64990;51.698;-0.292;2024-02-28T04:37:22;28.83;;;10.75;;
76208;SDS011;64990;51.698;-0.292;2024-02-28T04:39:48;25.65;;;10.35;;
76208;SDS011;64990;51.698;-0.292;2024-02-28T04:42:15;23.83;;;10.90;;
76208;SDS011;64990;51.698;-0.292;2024-02-28T04:44:41;29.42;;;11.73;;
76208;SDS011;64990;51.698;-0.292;2024-02-28T04:47:07;33.42;;;9.60;;
76208;SDS011;64990;51.698;-0.292;2024-02-28T04:49:36;51.22;;;11.43;;
76208;SDS011;64990;51.698;-0.292;2024-02-28T04:52:03;18.58;;;8.23;;
76208;SDS011;64990;51.698;-0.292;2024-02-28T04:54:29;29.35;;;9.02;;
76208;SDS011;64990;51.698;-0.292;2024-02-28T04:56:55;22.67;;;9.73;;
76208;SDS011;64990;51.698;-0.292;2024-02-28T04:59:21;24.77;;;9.98;;
76208;SDS011;64990;51.698;-0.292;2024-02-28T05:01:47;27.58;;;10.50;;
76208;SDS011;64990;51.698;-0.292;2024-02-28T05:04:13;23.13;;;9.13;;
76208;SDS011;64990;51.698;-0.292;2024-02-28T05:06:39;29.83;;;9.52;;
76208;SDS011;64990;51.698;-0.292;2024-02-28T05:09:05;29.95;;;10.48;;
76208;SDS011;64990;51.698;-0.292;2024-02-28T05:11:31;27.30;;;9.75;;
76208;SDS011;64990;51.698;-0.292;2024-02-28T05:13:57;39.03;;;10.23;;
76208;SDS011;64990;51.698;-0.292;2024-02-28T05:16:23;35.55;;;10.40;;
76208;SDS011;64990;51.698;-0.292;2024-02-28T05:18:49;29.05;;;10.65;;
76208;SDS011;64990;51.698;-0.292;2024-02-28T05:21:15;67.07;;;11.70;;
76208;SDS011;64990;51.698;-0.292;2024-02-28T05:23:41;74.82;;;14.57;;
76208;SDS011;64990;51.698;-0.292;2024-02-28T05:26:07;36.22;;;12.77;;
76208;SDS011;64990;51.698;-0.292;2024-02-28T05:28:33;62.55;;;12.48;;
76208;SDS011;64990;51.698;-0.292;2024-02-28T05:33:45;113.35;;;13.02;;
76208;SDS011;64990;51.698;-0.292;2024-02-28T05:36:11;33.30;;;9.57;;
76208;SDS011;64990;51.698;-0.292;2024-02-28T05:38:37;57.70;;;11.90;;
76208;SDS011;64990;51.698;-0.292;2024-02-28T05:41:03;89.50;;;10.18;;
76208;SDS011;64990;51.698;-0.292;2024-02-28T05:43:29;28.38;;;9.52;;
76208;SDS011;64990;51.698;-0.292;2024-02-28T05:45:55;15.07;;;7.00;;
76208;SDS011;64990;51.698;-0.292;2024-02-28T05:48:21;23.20;;;9.45;;
76208;SDS011;64990;51.698;-0.292;2024-02-28T05:50:47;95.75;;;14.82;;
76208;SDS011;64990;51.698;-0.292;2024-02-28T05:53:13;28.67;;;9.38;;
76208;SDS011;64990;51.698;-0.292;2024-02-28T05:55:39;19.90;;;9.30;;
76208;SDS011;64990;51.698;-0.292;2024-02-28T05:58:05;49.70;;;12.52;;
76208;SDS011;64990;51.698;-0.292;2024-02-28T06:00:31;35.97;;;10.85;;
76208;SDS011;64990;51.698;-0.292;2024-02-28T06:02:57;35.85;;;10.00;;
76208;SDS011;64990;51.698;-0.292;2024-02-28T06:05:22;22.15;;;9.50;;
76208;SDS011;64990;51.698;-0.292;2024-02-28T06:07:48;23.08;;;12.15;;
76208;SDS011;64990;51.698;-0.292;2024-02-28T06:10:14;36.25;;;11.32;;
76208;SDS011;64990;51.698;-0.292;2024-02-28T06:12:40;38.03;;;12.18;;
76208;SDS011;64990;51.698;-0.292;2024-02-28T06:15:06;35.33;;;12.43;;
76208;SDS011;64990;51.698;-0.292;2024-02-28T06:17:32;60.17;;;14.00;;
76208;SDS011;64990;51.698;-0.292;2024-02-28T06:19:58;42.10;;;13.23;;
76208;SDS011;64990;51.698;-0.292;2024-02-28T06:22:24;31.75;;;12.60;;
76208;SDS011;64990;51.698;-0.292;2024-02-28T06:24:50;30.17;;;11.20;;
76208;SDS011;64990;51.698;-0.292;2024-02-28T06:27:16;33.05;;;11.63;;
76208;SDS011;64990;51.698;-0.292;2024-02-28T06:29:42;27.20;;;11.73;;
76208;SDS011;64990;51.698;-0.292;2024-02-28T06:32:08;38.33;;;13.50;;
76208;SDS011;64990;51.698;-0.292;2024-02-28T06:34:34;51.78;;;15.43;;
76208;SDS011;64990;51.698;-0.292;2024-02-28T06:37:01;48.60;;;14.63;;
76208;SDS011;64990;51.698;-0.292;2024-02-28T06:39:26;43.13;;;14.90;;
76208;SDS011;64990;51.698;-0.292;2024-02-28T06:41:52;62.45;;;18.25;;
76208;SDS011;64990;51.698;-0.292;2024-02-28T06:44:19;62.13;;;18.40;;
76208;SDS011;64990;51.698;-0.292;2024-02-28T06:46:45;90.53;;;17.52;;
76208;SDS011;64990;51.698;-0.292;2024-02-28T06:49:11;69.65;;;19.33;;
76208;SDS011;64990;51.698;-0.292;2024-02-28T06:51:37;71.70;;;18.27;;
76208;SDS011;64990;51.698;-0.292;2024-02-28T06:54:03;42.85;;;16.00;;
76208;SDS011;64990;51.698;-0.292;2024-02-28T06:56:30;60.70;;;17.55;;
76208;SDS011;64990;51.698;-0.292;2024-02-28T06:58:56;90.30;;;18.13;;
76208;SDS011;64990;51.698;-0.292;2024-02-28T07:01:22;73.45;;;17.83;;
76208;SDS011;64990;51.698;-0.292;2024-02-28T07:03:48;59.20;;;19.35;;
76208;SDS011;64990;51.698;-0.292;2024-02-28T07:06:14;104.32;;;22.35;;
76208;SDS011;64990;51.698;-0.292;2024-02-28T07:08:40;138.90;;;21.05;;
76208;SDS011;64990;51.698;-0.292;2024-02-28T07:11:12;104.05;;;20.05;;
76208;SDS011;64990;51.698;-0.292;2024-02-28T07:13:39;72.65;;;20.25;;
76208;SDS011;64990;51.698;-0.292;2024-02-28T07:16:05;79.70;;;20.08;;
76208;SDS011;64990;51.698;-0.292;2024-02-28T07:18:31;107.53;;;21.98;;
76208;SDS011;64990;51.698;-0.292;2024-02-28T07:20:57;87.97;;;19.77;;
76208;SDS011;64990;51.698;-0.292;2024-02-28T07:23:24;102.60;;;20.45;;
76208;SDS011;64990;51.698;-0.292;2024-02-28T07:25:50;95.03;;;21.33;;
76208;SDS011;64990;51.698;-0.292;2024-02-28T07:28:16;73.28;;;19.67;;
76208;SDS011;64990;51.698;-0.292;2024-02-28T07:30:42;82.40;;;19.58;;
76208;SDS011;64990;51.698;-0.292;2024-02-28T07:33:10;108.10;;;22.50;;
76208;SDS011;64990;51.698;-0.292;2024-02-28T07:35:45;91.53;;;20.17;;
76208;SDS011;64990;51.698;-0.292;2024-02-28T07:38:12;91.13;;;22.10;;
76208;SDS011;64990;51.698;-0.292;2024-02-28T07:40:38;57.92;;;16.70;;
76208;SDS011;64990;51.698;-0.292;2024-02-28T07:43:04;60.65;;;18.60;;
76208;SDS011;64990;51.698;-0.292;2024-02-28T07:45:30;71.32;;;17.35;;
76208;SDS011;64990;51.698;-0.292;2024-02-28T07:47:56;69.75;;;18.20;;
76208;SDS011;64990;51.698;-0.292;2024-02-28T07:50:22;64.15;;;20.08;;
76208;SDS011;64990;51.698;-0.292;2024-02-28T07:52:48;78.70;;;18.23;;
76208;SDS011;64990;51.698;-0.292;2024-02-28T07:55:14;61.60;;;17.92;;
76208;SDS011;64990;51.698;-0.292;2024-02-28T07:57:40;70.28;;;16.50;;
76208;SDS011;64990;51.698;-0.292;2024-02-28T08:00:06;57.55;;;17.25;;
76208;SDS011;64990;51.698;-0.292;2024-02-28T08:02:33;51.83;;;18.15;;
76208;SDS011;64990;51.698;-0.292;2024-02-28T08:04:59;51.80;;;14.93;;
76208;SDS011;64990;51.698;-0.292;2024-02-28T08:07:25;56.42;;;15.95;;
76208;SDS011;64990;51.698;-0.292;2024-02-28T08:09:51;65.45;;;21.05;;
76208;SDS011;64990;51.698;-0.292;2024-02-28T08:12:17;46.33;;;14.95;;
76208;SDS011;64990;51.698;-0.292;2024-02-28T08:14:43;32.05;;;14.10;;
76208;SDS011;64990;51.698;-0.292;2024-02-28T08:17:09;40.35;;;13.20;;
76208;SDS011;64990;51.698;-0.292;2024-02-28T08:19:35;46.72;;;12.73;;
76208;SDS011;64990;51.698;-0.292;2024-02-28T08:22:01;40.58;;;12.82;;
76208;SDS011;64990;51.698;-0.292;2024-02-28T08:24:27;38.42;;;12.30;;
76208;SDS011;64990;51.698;-0.292;2024-02-28T08:26:53;37.60;;;12.68;;
76208;SDS011;64990;51.698;-0.292;2024-02-28T08:29:20;32.80;;;12.45;;
76208;SDS011;64990;51.698;-0.292;2024-02-28T08:31:47;34.55;;;14.18;;
76208;SDS011;64990;51.698;-0.292;2024-02-28T08:34:13;47.17;;;13.82;;
76208;SDS011;64990;51.698;-0.292;2024-02-28T08:36:39;24.42;;;9.70;;
76208;SDS011;64990;51.698;-0.292;2024-02-28T08:39:05;31.65;;;11.25;;
76208;SDS011;64990;51.698;-0.292;2024-02-28T08:41:34;28.98;;;11.25;;
76208;SDS011;64990;51.698;-0.292;2024-02-28T08:44:00;28.95;;;11.00;;
76208;SDS011;64990;51.698;-0.292;2024-02-28T08:46:26;28.25;;;11.35;;
76208;SDS011;64990;51.698;-0.292;2024-02-28T08:48:52;23.88;;;9.90;;
76208;SDS011;64990;51.698;-0.292;2024-02-28T08:51:18;22.55;;;10.70;;
76208;SDS011;64990;51.698;-0.292;2024-02-28T08:53:44;19.13;;;8.55;;
76208;SDS011;64990;51.698;-0.292;2024-02-28T08:56:10;27.42;;;9.48;;
76208;SDS011;64990;51.698;-0.292;2024-02-28T08:58:36;27.40;;;9.50;;
76208;SDS011;64990;51.698;-0.292;2024-02-28T09:01:03;19.15;;;8.93;;
76208;SDS011;64990;51.698;-0.292;2024-02-28T09:03:29;19.88;;;9.48;;
76208;SDS011;64990;51.698;-0.292;2024-02-28T09:05:55;27.85;;;8.35;;
76208;SDS011;64990;51.698;-0.292;2024-02-28T09:08:21;21.65;;;7.32;;
76208;SDS011;64990;51.698;-0.292;2024-02-28T09:10:47;21.90;;;7.57;;
76208;SDS011;64990;51.698;-0.292;2024-02-28T09:13:13;25.77;;;11.30;;
76208;SDS011;64990;51.698;-0.292;2024-02-28T09:15:39;15.40;;;6.50;;
76208;SDS011;64990;51.698;-0.292;2024-02-28T09:18:05;16.05;;;7.68;;
76208;SDS011;64990;51.698;-0.292;2024-02-28T09:20:31;22.45;;;7.18;;
76208;SDS011;64990;51.698;-0.292;2024-02-28T09:22:57;16.88;;;7.40;;
76208;SDS011;64990;51.698;-0.292;2024-02-28T09:25:23;13.13;;;6.57;;
76208;SDS011;64990;51.698;-0.292;2024-02-28T09:27:49;10.93;;;6.47;;
76208;SDS011;64990;51.698;-0.292;2024-02-28T09:30:16;12.35;;;6.68;;
76208;SDS011;64990;51.698;-0.292;2024-02-28T09:32:43;24.55;;;7.40;;
76208;SDS011;64990;51.698;-0.292;2024-02-28T09:35:09;18.13;;;6.63;;
76208;SDS011;64990;51.698;-0.292;2024-02-28T09:37:36;16.45;;;6.82;;
76208;SDS011;64990;51.698;-0.292;2024-02-28T09:40:03;15.65;;;6.88;;
76208;SDS011;64990;51.698;-0.292;2024-02-28T09:42:30;17.63;;;8.00;;
76208;SDS011;64990;51.698;-0.292;2024-02-28T09:44:56;17.75;;;6.53;;
76208;SDS011;64990;51.698;-0.292;2024-02-28T09:47:26;22.50;;;7.30;;
76208;SDS011;64990;51.698;-0.292;2024-02-28T09:49:52;21.25;;;8.02;;
76208;SDS011;64990;51.698;-0.292;2024-02-28T09:52:19;11.35;;;6.22;;
76208;SDS011;64990;51.698;-0.292;2024-02-28T09:54:45;20.92;;;6.63;;
76208;SDS011;64990;51.698;-0.292;2024-02-28T09:57:11;16.55;;;7.15;;
76208;SDS011;64990;51.698;-0.292;2024-02-28T09:59:37;12.65;;;5.93;;
76208;SDS011;64990;51.698;-0.292;2024-02-28T10:02:05;11.15;;;5.97;;
76208;SDS011;64990;51.698;-0.292;2024-02-28T10:04:33;10.35;;;3.92;;
76208;SDS011;64990;51.698;-0.292;2024-02-28T10:07:09;11.95;;;5.88;;
76208;SDS011;64990;51.698;-0.292;2024-02-28T10:09:38;20.25;;;4.80;;
76208;SDS011;64990;51.698;-0.292;2024-02-28T10:12:04;6.63;;;4.20;;
76208;SDS011;64990;51.698;-0.292;2024-02-28T10:14:30;8.95;;;4.78;;
76208;SDS011;64990;51.698;-0.292;2024-02-28T10:16:56;14.05;;;5.25;;
76208;SDS011;64990;51.698;-0.292;2024-02-28T10:19:22;12.60;;;4.28;;
76208;SDS011;64990;51.698;-0.292;2024-02-28T10:21:49;18.83;;;6.38;;
76208;SDS011;64990;51.698;-0.292;2024-02-28T10:24:16;11.32;;;5.63;;
76208;SDS011;64990;51.698;-0.292;2024-02-28T10:26:42;8.65;;;3.67;;
76208;SDS011;64990;51.698;-0.292;2024-02-28T10:29:08;18.02;;;5.60;;
76208;SDS011;64990;51.698;-0.292;2024-02-28T10:31:35;7.60;;;3.90;;
76208;SDS011;64990;51.698;-0.292;2024-02-28T10:34:01;17.52;;;5.25;;
76208;SDS011;64990;51.698;-0.292;2024-02-28T10:36:27;23.65;;;5.28;;
76208;SDS011;64990;51.698;-0.292;2024-02-28T10:38:55;12.18;;;3.60;;
76208;SDS011;64990;51.698;-0.292;2024-02-28T10:41:21;10.57;;;4.93;;
76208;SDS011;64990;51.698;-0.292;2024-02-28T10:43:48;14.25;;;5.75;;
76208;SDS011;64990;51.698;-0.292;2024-02-28T10:46:14;16.25;;;4.22;;
76208;SDS011;64990;51.698;-0.292;2024-02-28T10:48:40;22.00;;;4.57;;
76208;SDS011;64990;51.698;-0.292;2024-02-28T10:51:06;10.00;;;4.13;;
76208;SDS011;64990;51.698;-0.292;2024-02-28T10:53:36;14.23;;;4.35;;
76208;SDS011;64990;51.698;-0.292;2024-02-28T10:56:06;7.35;;;4.10;;
76208;SDS011;64990;51.698;-0.292;2024-02-28T10:58:36;12.20;;;2.92;;
76208;SDS011;64990;51.698;-0.292;2024-02-28T11:01:02;12.20;;;2.65;;
76208;SDS011;64990;51.698;-0.292;2024-02-28T11:03:28;18.23;;;4.53;;
76208;SDS011;64990;51.698;-0.292;2024-02-28T11:05:56;16.13;;;4.10;;
76208;SDS011;64990;51.698;-0.292;2024-02-28T11:08:23;19.60;;;3.92;;
76208;SDS011;64990;51.698;-0.292;2024-02-28T11:10:55;12.23;;;3.35;;
76208;SDS011;64990;51.698;-0.292;2024-02-28T11:13:22;17.40;;;4.30;;
76208;SDS011;64990;51.698;-0.292;2024-02-28T11:15:48;18.33;;;3.95;;
76208;SDS011;64990;51.698;-0.292;2024-02-28T11:18:14;21.40;;;3.35;;
76208;SDS011;64990;51.698;-0.292;2024-02-28T11:20:40;21.42;;;3.83;;
76208;SDS011;64990;51.698;-0.292;2024-02-28T11:23:07;12.55;;;3.33;;
76208;SDS011;64990;51.698;-0.292;2024-02-28T11:25:34;7.72;;;3.03;;
76208;SDS011;64990;51.698;-0.292;2024-02-28T11:28:00;25.55;;;4.32;;
76208;SDS011;64990;51.698;-0.292;2024-02-28T11:30:26;16.88;;;4.45;;
76208;SDS011;64990;51.698;-0.292;2024-02-28T11:32:52;16.77;;;3.45;;
76208;SDS011;64990;51.698;-0.292;2024-02-28T11:35:24;19.23;;;3.65;;
76208;SDS011;64990;51.698;-0.292;2024-02-28T11:37:50;22.80;;;6.25;;
76208;SDS011;64990;51.698;-0.292;2024-02-28T11:40:18;21.00;;;4.30;;
76208;SDS011;64990;51.698;-0.292;2024-02-28T11:42:45;26.58;;;2.65;;
76208;SDS011;64990;51.698;-0.292;2024-02-28T11:45:11;15.82;;;3.80;;
76208;SDS011;64990;51.698;-0.292;2024-02-28T11:47:37;18.25;;;3.13;;
76208;SDS011;64990;51.698;-0.292;2024-02-28T11:50:03;13.65;;;3.95;;
76208;SDS011;64990;51.698;-0.292;2024-02-28T11:52:35;18.30;;;5.13;;
76208;SDS011;64990;51.698;-0.292;2024-02-28T11:55:02;20.35;;;4.05;;
76208;SDS011;64990;51.698;-0.292;2024-02-28T11:57:28;11.00;;;2.33;;
76208;SDS011;64990;51.698;-0.292;2024-02-28T11:59:58;19.15;;;3.83;;
76208;SDS011;64990;51.698;-0.292;2024-02-28T12:02:24;20.65;;;4.13;;
76208;SDS011;64990;51.698;-0.292;2024-02-28T12:04:50;12.80;;;3.53;;
76208;SDS011;64990;51.698;-0.292;2024-02-28T12:07:17;13.40;;;2.70;;
76208;SDS011;64990;51.698;-0.292;2024-02-28T12:09:43;25.83;;;4.38;;
76208;SDS011;64990;51.698;-0.292;2024-02-28T12:12:09;15.00;;;3.65;;
76208;SDS011;64990;51.698;-0.292;2024-02-28T12:14:37;15.95;;;4.43;;
76208;SDS011;64990;51.698;-0.292;2024-02-28T12:17:04;14.43;;;2.75;;
76208;SDS011;64990;51.698;-0.292;2024-02-28T12:19:30;23.52;;;4.80;;
76208;SDS011;64990;51.698;-0.292;2024-02-28T12:21:56;14.82;;;3.22;;
76208;SDS011;64990;51.698;-0.292;2024-02-28T12:24:23;23.60;;;3.13;;
76208;SDS011;64990;51.698;-0.292;2024-02-28T12:26:49;15.30;;;3.47;;
76208;SDS011;64990;51.698;-0.292;2024-02-28T12:29:15;17.23;;;4.05;;
76208;SDS011;64990;51.698;-0.292;2024-02-28T12:31:41;30.77;;;5.88;;
76208;SDS011;64990;51.698;-0.292;2024-02-28T12:34:08;11.77;;;3.58;;
76208;SDS011;64990;51.698;-0.292;2024-02-28T12:36:34;16.40;;;4.68;;
76208;SDS011;64990;51.698;-0.292;2024-02-28T12:39:00;15.48;;;3.13;;
76208;SDS011;64990;51.698;-0.292;2024-02-28T12:41:26;17.13;;;3.78;;
76208;SDS011;64990;51.698;-0.292;2024-02-28T12:43:53;10.40;;;2.83;;
76208;SDS011;64990;51.698;-0.292;2024-02-28T12:46:19;10.93;;;2.88;;
76208;SDS011;64990;51.698;-0.292;2024-02-28T12:48:45;14.77;;;2.83;;
76208;SDS011;64990;51.698;-0.292;2024-02-28T12:53:58;4.43;;;2.17;;
76208;SDS011;64990;51.698;-0.292;2024-02-28T12:56:24;15.07;;;3.80;;
76208;SDS011;64990;51.698;-0.292;2024-02-28T12:58:50;14.60;;;3.60;;
76208;SDS011;64990;51.698;-0.292;2024-02-28T13:01:16;9.30;;;3.28;;
76208;SDS011;64990;51.698;-0.292;2024-02-28T13:03:42;12.40;;;4.18;;
76208;SDS011;64990;51.698;-0.292;2024-02-28T13:06:08;16.55;;;2.97;;
76208;SDS011;64990;51.698;-0.292;2024-02-28T13:08:34;7.80;;;2.10;;
76208;SDS011;64990;51.698;-0.292;2024-02-28T13:11:00;19.90;;;4.88;;
76208;SDS011;64990;51.698;-0.292;2024-02-28T13:13:26;10.68;;;1.88;;
76208;SDS011;64990;51.698;-0.292;2024-02-28T13:15:52;16.65;;;1.90;;
76208;SDS011;64990;51.698;-0.292;2024-02-28T13:18:18;9.10;;;2.22;;
76208;SDS011;64990;51.698;-0.292;2024-02-28T13:20:44;15.50;;;3.78;;
76208;SDS011;64990;51.698;-0.292;2024-02-28T13:23:10;8.10;;;2.08;;
76208;SDS011;64990;51.698;-0.292;2024-02-28T13:25:36;10.13;;;3.42;;
76208;SDS011;64990;51.698;-0.292;2024-02-28T13:28:02;4.72;;;2.17;;
76208;SDS011;64990;51.698;-0.292;2024-02-28T13:30:29;15.35;;;3.88;;
76208;SDS011;64990;51.698;-0.292;2024-02-28T13:32:55;13.90;;;2.38;;
76208;SDS011;64990;51.698;-0.292;2024-02-28T13:35:21;27.10;;;5.20;;
76208;SDS011;64990;51.698;-0.292;2024-02-28T13:37:47;7.35;;;2.03;;
76208;SDS011;64990;51.698;-0.292;2024-02-28T13:40:13;12.23;;;2.88;;
76208;SDS011;64990;51.698;-0.292;2024-02-28T13:42:39;8.95;;;2.55;;
76208;SDS011;64990;51.698;-0.292;2024-02-28T13:45:06;8.52;;;3.03;;
76208;SDS011;64990;51.698;-0.292;2024-02-28T13:47:33;10.23;;;1.77;;
76208;SDS011;64990;51.698;-0.292;2024-02-28T13:49:59;14.05;;;3.90;;
76208;SDS011;64990;51.698;-0.292;2024-02-28T13:52:25;21.52;;;4.82;;
76208;SDS011;64990;51.698;-0.292;2024-02-28T13:54:51;3.45;;;1.52;;
76208;SDS011;64990;51.698;-0.292;2024-02-28T13:57:17;12.82;;;3.60;;
76208;SDS011;64990;51.698;-0.292;2024-02-28T13:59:43;17.65;;;3.70;;
76208;SDS011;64990;51.698;-0.292;2024-02-28T14:02:13;9.52;;;2.20;;
76208;SDS011;64990;51.698;-0.292;2024-02-28T14:04:39;4.63;;;1.73;;
76208;SDS011;64990;51.698;-0.292;2024-02-28T14:07:07;6.15;;;2.20;;
76208;SDS011;64990;51.698;-0.292;2024-02-28T14:09:33;6.50;;;2.20;;
76208;SDS011;64990;51.698;-0.292;2024-02-28T14:11:59;7.72;;;2.67;;
76208;SDS011;64990;51.698;-0.292;2024-02-28T14:14:25;5.07;;;2.42;;
76208;SDS011;64990;51.698;-0.292;2024-02-28T14:16:52;9.98;;;1.80;;
76208;SDS011;64990;51.698;-0.292;2024-02-28T14:19:18;6.82;;;3.03;;
76208;SDS011;64990;51.698;-0.292;2024-02-28T14:21:44;11.95;;;2.58;;